Terminal Aerodrome Forecast
Issued by NWS

Home | Current Version | Previous Version | Text Only | Print | Product List | Glossary On
Versions: 1 2 3 4 5 6 7 8 9 10 11 12 13 14 15 16 17 18 19 20 21 22
000
FTUS42 KMLB 271100
TAFSUA
TAF
KSUA 271131Z 2712/2812 00000KT 3SM BR SCT001 BKN025
      TEMPO 2712/2713 1SM BR
     FM271600 10006KT P6SM BKN040
     FM280200 12004KT P6SM BKN040
     FM280600 13003KT P6SM BKN020=

USA.gov is the U.S. government's official web portal to all federal, state and local government web resources and services.